SKVV/VVC METAR and TAF weather

Enter ICAO airport designator
Station Type Date Time Source
SKVV METAR 2020/09/20 23:00 UTC NOAA

SKVV 202300Z 34003KT 9999 SCT020 SCT090 25/21 A2989


Station Type Date Time Source
SKVV Decoded METAR 2020/09/20 23:00 UTC NOAA

Villavicencio / Vanguardia, Colombia (SKVV) 04-10N 073-37W 431M
Sep 20, 2020 - 07:00 PM EDT / 2020.09.20 2300 UTC
Wind: from the NNW (340 degrees) at 3 MPH (3 KT):0
Visibility: greater than 7 mile(s):0
Sky conditions: partly cloudy
Temperature: 77 F (25 C)
Dew Point: 69 F (21 C)
Relative Humidity: 78%
Pressure (altimeter): 29.89 in. Hg (1012 hPa)
ob: SKVV 202300Z 34003KT 9999 SCT020 SCT090 25/21 A2989
cycle: 23

Station Type Date Time Source
SKVV TAF UTC NOAA

Error!

Example: see airport list